Time;durP1;ratioP1;P1;durP2;ratioP2;P2;SDS_P1;SDS_P2;PMS_P1;PMS_P2;Temp;Humidity;BMP_temperature;BMP_pressure;BME280_temperature;BME280_humidity;BME280_pressure;Samples;Min_cycle;Max_cycle;Signal;HPM_P1;HPM_P2
2022/08/19 00:01:54;;;;;;;18.48;16.58;;;27.90;52.80;;;;;;4917007;52;20991;-32
2022/08/19 00:06:56;;;;;;;19.20;16.90;;;27.90;52.80;;;;;;4939503;52;21034;-33
2022/08/19 00:11:57;;;;;;;18.70;16.80;;;27.90;52.90;;;;;;4910414;52;21031;-29
2022/08/19 00:16:58;;;;;;;18.15;16.35;;;27.80;52.90;;;;;;4916410;52;21099;-35
2022/08/19 00:21:59;;;;;;;20.12;16.95;;;27.80;52.90;;;;;;4914268;52;21581;-34
2022/08/19 00:27:01;;;;;;;17.40;15.70;;;27.80;52.90;;;;;;4909457;53;21485;-26
2022/08/19 00:32:02;;;;;;;17.80;16.00;;;27.90;53.00;;;;;;4921343;52;21474;-27
2022/08/19 00:37:03;;;;;;;19.05;17.15;;;27.80;53.00;;;;;;4936266;52;20979;-27
2022/08/19 00:42:06;;;;;;;17.05;15.25;;;27.80;53.00;;;;;;4910151;56;21031;-28
2022/08/19 00:47:06;;;;;;;19.25;16.80;;;27.90;53.10;;;;;;4933888;52;21497;-30
2022/08/19 00:52:12;;;;;;;18.15;16.08;;;27.80;53.10;;;;;;4991829;52;20999;-30
2022/08/19 00:57:18;;;;;;;17.77;15.98;;;27.80;53.10;;;;;;4910076;56;20963;-31
2022/08/19 01:02:19;;;;;;;16.90;15.10;;;27.80;53.20;;;;;;4919811;52;20991;-36
2022/08/19 01:07:19;;;;;;;17.52;15.73;;;27.80;53.20;;;;;;4918194;52;21480;-30
2022/08/19 01:12:21;;;;;;;17.37;15.57;;;27.80;53.30;;;;;;4918265;52;21007;-29
2022/08/19 01:17:22;;;;;;;17.62;15.82;;;27.80;53.30;;;;;;4913192;52;21497;-33
2022/08/19 01:22:34;;;;;;;16.60;14.87;;;27.80;53.30;;;;;;4920070;52;20978;-34
2022/08/19 01:27:40;;;;;;;16.33;14.68;;;27.80;53.30;;;;;;4909568;53;21055;-37
2022/08/19 01:32:43;;;;;;;16.50;14.77;;;27.80;53.40;;;;;;4934009;52;21046;-29
2022/08/19 01:38:09;;;;;;;16.98;15.27;;;27.80;53.40;;;;;;4913841;52;21043;-31
2022/08/19 01:43:10;;;;;;;15.75;14.10;;;27.80;53.40;;;;;;4962112;52;21529;-27
2022/08/19 01:48:12;;;;;;;15.45;13.82;;;27.80;53.50;;;;;;4920366;52;20995;-36
2022/08/19 01:53:13;;;;;;;16.05;14.35;;;27.80;53.40;;;;;;4923339;52;21003;-26
2022/08/19 01:58:20;;;;;;;15.98;14.38;;;27.80;53.50;;;;;;4978216;52;20975;-34
2022/08/19 02:03:22;;;;;;;15.82;14.23;;;27.80;53.50;;;;;;4939609;52;21572;-35
2022/08/19 02:08:23;;;;;;;16.12;14.52;;;27.80;53.60;;;;;;4922643;52;21467;-34
2022/08/19 02:13:25;;;;;;;15.25;13.65;;;27.80;53.60;;;;;;4909247;56;21156;-30
2022/08/19 02:18:26;;;;;;;15.00;13.50;;;27.80;54.20;;;;;;4910739;52;20984;-32
2022/08/19 02:23:27;;;;;;;14.25;12.77;;;27.80;53.60;;;;;;4938695;52;20979;-31
2022/08/19 02:28:27;;;;;;;15.38;13.88;;;27.80;53.70;;;;;;4918017;52;20992;-26
2022/08/19 02:33:29;;;;;;;14.90;13.43;;;27.80;53.70;;;;;;4911910;52;20995;-31
2022/08/19 02:38:29;;;;;;;14.80;13.30;;;27.80;53.70;;;;;;4932440;52;21501;-31
2022/08/19 02:43:32;;;;;;;15.43;12.98;;;27.80;53.70;;;;;;4912626;52;20996;-33
2022/08/19 02:48:33;;;;;;;14.02;12.63;;;27.80;53.70;;;;;;4955756;52;21031;-30
2022/08/19 02:53:34;;;;;;;14.82;13.25;;;27.80;53.70;;;;;;4921667;52;20988;-32
2022/08/19 02:58:34;;;;;;;14.10;12.70;;;27.70;53.70;;;;;;4911704;52;21035;-29
2022/08/19 03:03:36;;;;;;;15.07;13.27;;;27.80;53.70;;;;;;4924864;52;21501;-32
2022/08/19 03:08:37;;;;;;;14.35;12.95;;;27.70;53.70;;;;;;4919739;52;21023;-34
2022/08/19 03:13:38;;;;;;;14.02;12.63;;;27.80;53.80;;;;;;4909399;56;21060;-31
2022/08/19 03:18:39;;;;;;;13.77;12.05;;;27.70;53.70;;;;;;4910522;52;21481;-35
2022/08/19 03:23:39;;;;;;;13.68;12.37;;;27.80;53.90;;;;;;4959435;52;20990;-28
2022/08/19 03:28:42;;;;;;;13.57;12.18;;;27.70;53.80;;;;;;4912397;52;21024;-25
2022/08/19 03:33:43;;;;;;;13.70;12.40;;;27.70;53.80;;;;;;4911170;52;20987;-30
2022/08/19 03:38:49;;;;;;;13.98;12.50;;;27.70;53.80;;;;;;4966436;52;21035;-28
2022/08/19 03:43:51;;;;;;;13.55;12.15;;;27.70;53.80;;;;;;4953136;52;22425;-35
2022/08/19 03:48:55;;;;;;;13.27;11.95;;;27.70;53.90;;;;;;4909153;56;20991;-26
2022/08/19 03:53:58;;;;;;;13.13;11.77;;;27.70;53.90;;;;;;4948230;52;20983;-32
2022/08/19 03:59:00;;;;;;;12.88;11.57;;;27.70;53.80;;;;;;4972559;52;21031;-32
2022/08/19 04:04:01;;;;;;;12.68;11.15;;;27.70;53.80;;;;;;4936040;52;21002;-26
2022/08/19 04:09:05;;;;;;;13.80;12.07;;;27.70;53.90;;;;;;4913055;52;20995;-30
2022/08/19 04:14:05;;;;;;;13.07;11.55;;;27.70;54.00;;;;;;4932922;52;21074;-33
2022/08/19 04:19:06;;;;;;;12.95;11.20;;;27.70;54.00;;;;;;4915702;52;20980;-34
2022/08/19 04:24:09;;;;;;;12.82;11.52;;;27.70;54.10;;;;;;4915497;52;21536;-32
2022/08/19 04:29:15;;;;;;;13.10;11.75;;;27.70;54.00;;;;;;4938032;52;21082;-34
2022/08/19 04:34:21;;;;;;;11.83;10.60;;;27.70;54.00;;;;;;4968554;52;21565;-31
2022/08/19 04:44:50;;;;;;;12.25;10.68;;;27.70;54.00;;;;;;4910136;52;21070;-32
2022/08/19 04:49:51;;;;;;;12.73;11.05;;;27.70;54.00;;;;;;4956719;52;21550;-35
2022/08/19 04:54:52;;;;;;;12.60;10.57;;;27.70;53.90;;;;;;4936885;52;21113;-34
2022/08/19 04:59:56;;;;;;;11.35;10.23;;;27.70;54.60;;;;;;4938108;52;21019;-28
2022/08/19 05:05:00;;;;;;;13.43;11.02;;;27.70;53.90;;;;;;4920791;52;21458;-34
2022/08/19 05:10:04;;;;;;;11.68;10.48;;;27.70;53.90;;;;;;4909219;56;21505;-34
2022/08/19 05:15:08;;;;;;;11.98;10.75;;;27.70;54.00;;;;;;4967531;52;20996;-36
2022/08/19 05:25:30;;;;;;;11.65;10.45;;;27.70;54.00;;;;;;4909713;52;21114;-33
2022/08/19 05:30:32;;;;;;;12.20;10.68;;;27.70;54.00;;;;;;4909761;56;21540;-33
2022/08/19 05:35:33;;;;;;;11.05;9.95;;;27.70;54.10;;;;;;4929554;52;21430;-26
2022/08/19 05:40:38;;;;;;;11.35;9.95;;;27.70;54.10;;;;;;4913620;52;21078;-29
2022/08/19 05:45:41;;;;;;;11.60;9.90;;;27.60;54.00;;;;;;4921755;52;20995;-28
2022/08/19 05:50:44;;;;;;;11.30;10.18;;;27.60;54.00;;;;;;4918738;52;21537;-36
2022/08/19 05:55:45;;;;;;;10.85;9.75;;;27.70;54.10;;;;;;4918366;52;21477;-29
2022/08/19 06:00:45;;;;;;;11.12;9.98;;;27.70;54.10;;;;;;4939216;52;20990;-33
2022/08/19 06:05:46;;;;;;;11.23;10.02;;;27.70;54.10;;;;;;4909831;56;21023;-33
2022/08/19 06:10:47;;;;;;;10.68;9.57;;;27.70;54.10;;;;;;4918768;52;21078;-32
2022/08/19 06:15:48;;;;;;;11.73;10.43;;;27.70;54.10;;;;;;4937067;52;20963;-30
2022/08/19 06:20:49;;;;;;;12.65;10.20;;;27.60;54.00;;;;;;4972774;52;21078;-33
2022/08/19 06:25:50;;;;;;;12.15;10.27;;;27.60;54.00;;;;;;4919417;52;21502;-31
2022/08/19 06:30:51;;;;;;;11.15;10.05;;;27.60;54.10;;;;;;4928579;52;20979;-32
2022/08/19 06:35:52;;;;;;;12.00;10.50;;;27.70;54.10;;;;;;4909781;56;20987;-36
2022/08/19 06:41:04;;;;;;;11.57;10.40;;;27.60;54.00;;;;;;4923599;52;20988;-29
2022/08/19 06:46:14;;;;;;;11.82;10.57;;;27.60;54.00;;;;;;4914601;52;20992;-27
2022/08/19 06:51:18;;;;;;;12.50;11.23;;;27.60;54.00;;;;;;4924444;52;21029;-29
2022/08/19 06:56:24;;;;;;;19.10;14.60;;;27.70;54.10;;;;;;4936099;52;21059;-27
2022/08/19 07:01:25;;;;;;;23.20;17.17;;;27.60;54.90;;;;;;4927746;52;21454;-30
2022/08/19 07:06:26;;;;;;;25.60;18.02;;;26.70;54.00;;;;;;4943967;52;20999;-35
2022/08/19 07:11:27;;;;;;;22.02;17.05;;;26.40;54.00;;;;;;4960726;52;21016;-36
2022/08/19 07:16:29;;;;;;;29.08;18.87;;;26.20;53.50;;;;;;4924011;52;21038;-36
2022/08/19 07:21:30;;;;;;;24.75;17.37;;;26.10;53.40;;;;;;4915041;52;20994;-32
2022/08/19 07:26:38;;;;;;;31.58;19.75;;;26.00;53.10;;;;;;4927986;52;21006;-31
2022/08/19 07:31:39;;;;;;;34.92;23.10;;;25.50;54.10;;;;;;4973006;52;21086;-30
2022/08/19 07:36:41;;;;;;;44.35;26.42;;;25.30;54.50;;;;;;4983000;52;20982;-30
2022/08/19 07:41:43;;;;;;;43.03;29.08;;;25.10;54.70;;;;;;4920229;52;21106;-26
2022/08/19 07:46:49;;;;;;;47.30;30.85;;;25.10;55.00;;;;;;4927718;52;20995;-37
2022/08/19 07:51:54;;;;;;;51.65;32.50;;;25.00;55.00;;;;;;4944973;52;21510;-26
2022/08/19 07:56:55;;;;;;;58.22;37.67;;;25.00;55.20;;;;;;4912002;52;20967;-29
2022/08/19 08:02:00;;;;;;;50.15;35.38;;;25.40;55.90;;;;;;4911881;52;20975;-29
2022/08/19 08:12:28;;;;;;;50.53;33.72;;;26.40;54.00;;;;;;4908942;52;22007;-30
2022/08/19 08:17:29;;;;;;;56.67;38.53;;;26.60;54.00;;;;;;4911678;52;21047;-28
2022/08/19 08:27:50;;;;;;;73.60;47.00;;;26.20;53.90;;;;;;4960101;52;21054;-34
2022/08/19 08:32:51;;;;;;;79.20;50.70;;;26.00;53.90;;;;;;4910298;56;20995;-29
2022/08/19 08:37:54;;;;;;;76.80;49.65;;;25.80;53.90;;;;;;4960335;52;20979;-33
2022/08/19 08:43:43;;;;;;;78.75;52.05;;;25.80;54.10;;;;;;4935811;52;21030;-29
2022/08/19 08:48:57;;;;;;;77.43;49.33;;;25.80;54.20;;;;;;4933764;52;21200;-26
2022/08/19 08:53:59;;;;;;;70.85;48.28;;;25.70;54.40;;;;;;4910318;52;21449;-28
2022/08/19 08:59:09;;;;;;;73.30;46.53;;;25.70;54.40;;;;;;4909689;56;20987;-34
2022/08/19 09:04:13;;;;;;;67.18;44.45;;;25.70;54.50;;;;;;4910916;52;21050;-32
2022/08/19 09:09:32;;;;;;;61.03;40.25;;;25.70;54.70;;;;;;4915868;52;21589;-32
2022/08/19 09:14:59;;;;;;;52.88;37.78;;;25.70;54.80;;;;;;4940735;52;21513;-27
2022/08/19 09:20:22;;;;;;;51.15;34.20;;;25.70;54.80;;;;;;4910029;56;20983;-28
2022/08/19 09:25:24;;;;;;;47.08;30.67;;;25.60;54.60;;;;;;4913482;52;21560;-37
2022/08/19 09:30:27;;;;;;;47.72;28.85;;;25.60;54.40;;;;;;4909958;53;20976;-33
2022/08/19 09:35:31;;;;;;;47.80;30.62;;;25.60;54.10;;;;;;4936547;52;21063;-33
2022/08/19 09:40:32;;;;;;;54.10;33.70;;;25.70;54.00;;;;;;4911305;52;21062;-34
2022/08/19 09:45:34;;;;;;;52.72;34.58;;;25.60;53.80;;;;;;4929906;52;21000;-35
2022/08/19 09:50:38;;;;;;;51.80;33.83;;;25.50;53.50;;;;;;4956705;52;22242;-31
2022/08/19 09:55:43;;;;;;;49.50;33.25;;;25.50;53.40;;;;;;4909191;56;21059;-32
2022/08/19 10:00:45;;;;;;;47.00;30.58;;;25.50;53.70;;;;;;4915285;52;20971;-28
2022/08/19 10:05:49;;;;;;;49.10;31.35;;;25.60;55.30;;;;;;4917802;52;21563;-28
2022/08/19 10:10:50;;;;;;;47.75;30.73;;;26.20;54.60;;;;;;5047499;52;21035;-28
2022/08/19 10:15:53;;;;;;;49.95;30.98;;;26.60;55.00;;;;;;4918271;52;21560;-29
2022/08/19 10:21:10;;;;;;;46.10;30.35;;;26.90;54.20;;;;;;4910024;52;20982;-29
2022/08/19 10:26:14;;;;;;;42.92;30.98;;;27.00;54.00;;;;;;4912749;52;21118;-27
2022/08/19 10:31:19;;;;;;;47.33;33.17;;;27.20;53.90;;;;;;4949552;52;21043;-32
2022/08/19 10:36:22;;;;;;;57.28;35.70;;;26.80;53.10;;;;;;4923454;52;21504;-34
2022/08/19 10:41:26;;;;;;;58.05;39.80;;;26.20;54.00;;;;;;4938879;52;21446;-28
2022/08/19 10:46:32;;;;;;;58.87;41.42;;;26.00;54.40;;;;;;4915746;52;21034;-30
2022/08/19 10:56:52;;;;;;;60.45;44.55;;;25.70;55.80;;;;;;4909863;52;21513;-26
2022/08/19 11:01:59;;;;;;;61.97;44.70;;;25.70;56.00;;;;;;4930826;52;21054;-32
2022/08/19 11:07:03;;;;;;;59.47;43.42;;;25.60;56.10;;;;;;4916366;52;20979;-26
2022/08/19 11:12:04;;;;;;;61.35;38.47;;;25.50;56.40;;;;;;4909185;56;21550;-31
2022/08/19 11:17:06;;;;;;;55.60;34.00;;;25.50;56.10;;;;;;4909971;56;20968;-27
2022/08/19 11:22:13;;;;;;;44.33;29.00;;;25.50;56.00;;;;;;4936247;52;22372;-34
2022/08/19 11:27:14;;;;;;;42.13;24.55;;;25.50;56.20;;;;;;4937486;52;21488;-26
2022/08/19 11:32:16;;;;;;;32.38;21.73;;;25.40;55.90;;;;;;4933808;52;21067;-31
2022/08/19 11:37:16;;;;;;;29.25;19.25;;;25.40;56.00;;;;;;4909710;56;21452;-30
2022/08/19 11:47:38;;;;;;;32.42;18.25;;;25.40;56.10;;;;;;4909028;52;21519;-30
2022/08/19 11:52:40;;;;;;;34.30;20.17;;;25.40;55.90;;;;;;4919044;52;21517;-31
2022/08/19 11:57:43;;;;;;;39.80;24.20;;;25.30;55.90;;;;;;4934579;52;21083;-33
2022/08/19 12:02:44;;;;;;;37.42;22.85;;;25.40;56.10;;;;;;4910401;56;21525;-31
2022/08/19 12:07:45;;;;;;;35.53;22.80;;;25.40;56.50;;;;;;4912483;52;21050;-34
2022/08/19 12:12:46;;;;;;;42.85;24.15;;;25.70;58.40;;;;;;4930583;52;21055;-33
2022/08/19 12:17:47;;;;;;;45.47;27.20;;;25.80;57.40;;;;;;4925036;52;21457;-32
2022/08/19 12:22:48;;;;;;;44.72;27.67;;;25.90;56.30;;;;;;4941623;52;21066;-37
2022/08/19 12:27:49;;;;;;;40.55;27.90;;;25.60;56.00;;;;;;4927292;52;21485;-35
2022/08/19 12:32:51;;;;;;;47.08;28.17;;;25.50;55.80;;;;;;4915542;52;20995;-36
2022/08/19 12:37:52;;;;;;;44.60;29.25;;;25.40;55.50;;;;;;4910125;56;20991;-35
2022/08/19 12:42:53;;;;;;;50.67;31.55;;;25.30;55.40;;;;;;4911382;52;21042;-28
2022/08/19 12:47:54;;;;;;;44.60;30.12;;;25.30;55.40;;;;;;4909764;56;21042;-33
2022/08/19 12:52:56;;;;;;;40.20;28.38;;;25.30;55.60;;;;;;4909388;53;21107;-27
2022/08/19 12:57:57;;;;;;;38.47;26.65;;;25.30;55.90;;;;;;4928059;52;21504;-34
2022/08/19 13:02:59;;;;;;;40.28;27.20;;;25.30;55.90;;;;;;5029178;52;21052;-27
2022/08/19 13:08:00;;;;;;;44.67;28.35;;;25.30;56.20;;;;;;4939916;52;21368;-27
2022/08/19 13:13:07;;;;;;;44.17;28.42;;;25.40;56.00;;;;;;4909233;56;20995;-35
2022/08/19 13:18:10;;;;;;;43.13;27.62;;;25.40;55.80;;;;;;4909809;56;21569;-26
2022/08/19 13:23:10;;;;;;;39.90;27.40;;;25.50;55.80;;;;;;4932874;52;21572;-28
2022/08/19 13:28:11;;;;;;;42.50;26.83;;;25.40;55.60;;;;;;4928825;52;20987;-32
2022/08/19 13:33:15;;;;;;;45.78;26.85;;;25.40;55.60;;;;;;4931178;52;20987;-26
2022/08/19 13:38:18;;;;;;;37.15;24.50;;;25.50;58.70;;;;;;4908816;56;21501;-28
2022/08/19 13:43:24;;;;;;;41.53;27.15;;;26.20;58.60;;;;;;4952584;52;21063;-31
2022/08/19 13:48:26;;;;;;;39.47;26.20;;;26.60;58.00;;;;;;4971930;52;21015;-26
2022/08/19 13:53:27;;;;;;;40.45;25.45;;;26.80;57.60;;;;;;4929462;52;21481;-26
2022/08/19 13:58:28;;;;;;;37.50;24.37;;;26.90;57.30;;;;;;4909989;56;20983;-29
2022/08/19 14:03:29;;;;;;;41.50;24.70;;;27.10;56.80;;;;;;4916824;52;20987;-26
2022/08/19 14:08:32;;;;;;;45.15;24.58;;;27.20;57.50;;;;;;4933324;52;20987;-35
2022/08/19 14:13:33;;;;;;;36.53;23.77;;;27.30;57.40;;;;;;4973923;52;21585;-37
2022/08/19 14:18:34;;;;;;;30.65;22.52;;;27.40;58.20;;;;;;4940176;52;21042;-28
2022/08/19 14:23:36;;;;;;;38.13;23.95;;;27.40;57.80;;;;;;4921693;52;21537;-35
2022/08/19 14:28:40;;;;;;;37.08;23.60;;;27.40;57.60;;;;;;4910364;56;21542;-34
2022/08/19 14:33:42;;;;;;;34.80;22.83;;;27.40;57.50;;;;;;4909735;56;21513;-26
2022/08/19 14:38:43;;;;;;;34.85;23.60;;;27.50;57.50;;;;;;4918335;52;21493;-25
2022/08/19 14:43:46;;;;;;;35.45;23.85;;;27.50;57.40;;;;;;4940437;52;21470;-31
2022/08/19 14:48:47;;;;;;;33.30;22.95;;;27.50;57.40;;;;;;4929430;52;21544;-32
2022/08/19 14:53:51;;;;;;;32.17;22.17;;;27.50;57.30;;;;;;4958930;52;21046;-32
2022/08/19 14:58:53;;;;;;;33.63;22.30;;;27.50;57.30;;;;;;4914433;52;21525;-30
2022/08/19 15:03:54;;;;;;;28.60;21.83;;;27.50;57.20;;;;;;4951785;52;20986;-28
2022/08/19 15:08:55;;;;;;;33.47;20.88;;;27.50;57.20;;;;;;4910861;52;21529;-38
2022/08/19 15:13:56;;;;;;;30.60;22.37;;;27.50;57.10;;;;;;4952527;52;21019;-33
2022/08/19 15:19:01;;;;;;;31.08;22.02;;;27.50;57.10;;;;;;4919943;52;21923;-33
2022/08/19 15:24:04;;;;;;;29.70;22.30;;;27.50;57.10;;;;;;4936164;52;21071;-37
2022/08/19 15:29:05;;;;;;;30.65;21.83;;;27.60;57.10;;;;;;4946636;52;21577;-36
2022/08/19 15:34:06;;;;;;;29.90;22.17;;;27.60;57.20;;;;;;4911289;52;20975;-29
2022/08/19 15:39:08;;;;;;;28.67;21.73;;;27.60;57.10;;;;;;4915064;52;20979;-35
2022/08/19 15:44:13;;;;;;;28.35;21.55;;;27.60;57.40;;;;;;4935788;52;21473;-40
2022/08/19 15:49:16;;;;;;;29.80;21.52;;;27.60;57.10;;;;;;4933653;52;21026;-29
2022/08/19 15:54:20;;;;;;;30.50;21.98;;;27.60;57.10;;;;;;4917277;52;20975;-26
2022/08/19 16:10:01;;;;;;;27.40;20.33;;;27.60;57.00;;;;;;4926821;52;21493;-27
2022/08/19 16:15:02;;;;;;;25.95;19.77;;;27.60;57.00;;;;;;4943546;52;21012;-33
2022/08/19 16:20:08;;;;;;;26.45;19.87;;;27.60;57.00;;;;;;4916788;52;21074;-33
2022/08/19 16:25:10;;;;;;;29.83;21.15;;;27.60;57.00;;;;;;4938351;52;21438;-25
2022/08/19 16:30:11;;;;;;;26.17;20.17;;;27.60;57.00;;;;;;4933922;52;21339;-26
2022/08/19 16:35:12;;;;;;;25.52;20.15;;;27.60;57.00;;;;;;4909914;56;20995;-24
2022/08/19 16:40:13;;;;;;;24.37;20.10;;;27.60;56.90;;;;;;4920242;52;21527;-30
2022/08/19 16:45:14;;;;;;;26.45;20.73;;;27.60;57.60;;;;;;4963867;52;21631;-27
2022/08/19 16:50:17;;;;;;;24.65;20.33;;;27.60;57.00;;;;;;4947025;52;21473;-28
2022/08/19 16:55:20;;;;;;;26.95;19.48;;;27.60;56.90;;;;;;4931648;52;21466;-32
2022/08/19 17:00:21;;;;;;;24.45;19.08;;;27.60;56.90;;;;;;4944460;52;21537;-36
2022/08/19 17:05:23;;;;;;;27.37;20.55;;;27.60;56.90;;;;;;4956725;52;21079;-34
2022/08/19 17:10:24;;;;;;;24.58;19.65;;;27.60;56.80;;;;;;4908317;56;21591;-26
2022/08/19 17:15:25;;;;;;;23.25;18.92;;;27.60;56.80;;;;;;4918290;52;20992;-35
2022/08/19 17:20:26;;;;;;;23.60;20.35;;;27.60;56.80;;;;;;4927168;52;21489;-35
2022/08/19 17:25:30;;;;;;;26.30;19.87;;;27.60;56.80;;;;;;4911685;52;21053;-34
2022/08/19 17:30:31;;;;;;;22.67;20.02;;;27.60;56.80;;;;;;4946812;52;21493;-27
2022/08/19 17:35:32;;;;;;;22.17;19.20;;;27.70;56.90;;;;;;4949012;52;21030;-34
2022/08/19 17:40:35;;;;;;;25.02;19.58;;;27.70;56.90;;;;;;5002730;52;20991;-32
2022/08/19 17:45:37;;;;;;;25.75;19.85;;;27.70;56.90;;;;;;4910110;56;21489;-30
2022/08/19 17:50:40;;;;;;;24.50;19.27;;;27.70;57.50;;;;;;4935593;52;21015;-26
2022/08/19 17:55:41;;;;;;;23.95;18.77;;;27.70;56.90;;;;;;4924587;52;21521;-37
2022/08/19 18:00:42;;;;;;;22.73;19.05;;;27.70;56.90;;;;;;4969753;52;20975;-26
2022/08/19 18:05:43;;;;;;;23.75;18.85;;;27.70;56.90;;;;;;4915727;52;20976;-37
2022/08/19 18:10:44;;;;;;;20.83;18.50;;;27.70;56.90;;;;;;4959669;52;21540;-37
2022/08/19 18:15:46;;;;;;;24.17;18.30;;;27.70;56.90;;;;;;4909287;56;21092;-26
2022/08/19 18:20:47;;;;;;;22.62;18.52;;;27.70;56.90;;;;;;4932036;52;21437;-36
2022/08/19 18:25:47;;;;;;;23.20;19.10;;;27.70;57.00;;;;;;4914394;52;21023;-30
2022/08/19 18:30:48;;;;;;;22.00;18.73;;;27.70;56.90;;;;;;4927817;52;20983;-27
2022/08/19 18:35:51;;;;;;;21.77;18.55;;;27.70;56.90;;;;;;4909338;56;21469;-35
2022/08/19 18:51:31;;;;;;;21.50;18.05;;;27.70;56.90;;;;;;4909421;52;21054;-29
2022/08/19 18:56:33;;;;;;;22.60;18.75;;;27.70;56.90;;;;;;4913409;52;21042;-31
2022/08/19 19:01:39;;;;;;;22.67;17.92;;;27.70;57.00;;;;;;4932808;52;21489;-34
2022/08/19 19:06:41;;;;;;;21.40;18.07;;;27.70;56.90;;;;;;4931234;52;21043;-37
2022/08/19 19:11:44;;;;;;;22.50;17.87;;;27.70;57.50;;;;;;4909670;52;21415;-27
2022/08/19 19:16:44;;;;;;;21.10;17.80;;;27.70;56.90;;;;;;4909919;56;20995;-32
2022/08/19 19:21:48;;;;;;;21.02;17.75;;;27.70;56.90;;;;;;4908581;56;21027;-27
2022/08/19 19:26:51;;;;;;;22.33;18.00;;;27.70;57.00;;;;;;4944754;52;21457;-35
2022/08/19 19:31:54;;;;;;;22.50;18.58;;;27.70;57.00;;;;;;4942553;52;20979;-34
2022/08/19 19:36:55;;;;;;;21.65;17.92;;;27.70;57.00;;;;;;4937186;52;21039;-28
2022/08/19 19:41:56;;;;;;;22.35;17.48;;;27.70;57.00;;;;;;4913788;52;21072;-35
2022/08/19 19:46:58;;;;;;;21.35;17.62;;;27.70;57.10;;;;;;4909828;52;21059;-36
2022/08/19 19:52:02;;;;;;;21.50;17.65;;;27.70;57.10;;;;;;4910029;56;21461;-29
2022/08/19 19:57:03;;;;;;;20.83;17.17;;;27.70;57.10;;;;;;4924800;52;21039;-35
2022/08/19 20:02:05;;;;;;;22.33;17.80;;;27.70;57.10;;;;;;4930885;52;21905;-35
2022/08/19 20:07:06;;;;;;;20.83;17.20;;;27.70;57.60;;;;;;4922312;52;21524;-33
2022/08/19 20:12:06;;;;;;;20.40;16.40;;;27.70;57.20;;;;;;4930384;52;21020;-37
2022/08/19 20:17:07;;;;;;;20.30;17.17;;;27.70;57.30;;;;;;4937283;52;20975;-35
2022/08/19 20:22:09;;;;;;;18.52;16.62;;;27.70;57.20;;;;;;4917965;52;21481;-26
2022/08/19 20:27:10;;;;;;;19.02;16.75;;;27.70;57.20;;;;;;4909968;56;21577;-37
2022/08/19 20:32:12;;;;;;;18.30;16.27;;;27.70;57.30;;;;;;4958786;52;21537;-30
2022/08/19 20:37:12;;;;;;;18.95;16.90;;;27.70;57.30;;;;;;4934302;52;21453;-39
2022/08/19 20:42:13;;;;;;;20.90;17.17;;;27.70;57.30;;;;;;4949951;52;21002;-38
2022/08/19 20:47:14;;;;;;;20.67;16.83;;;27.70;57.40;;;;;;4963840;52;20995;-35
2022/08/19 20:52:15;;;;;;;18.83;15.95;;;27.70;57.40;;;;;;4959692;52;21003;-36
2022/08/19 20:57:16;;;;;;;20.60;16.23;;;27.70;57.30;;;;;;5046263;52;21513;-36
2022/08/19 21:02:18;;;;;;;19.60;16.25;;;27.70;57.40;;;;;;4962987;52;21095;-38
2022/08/19 21:07:19;;;;;;;23.23;16.50;;;27.70;57.40;;;;;;4920369;52;21517;-36
2022/08/19 21:12:20;;;;;;;17.85;15.70;;;27.70;57.70;;;;;;4929659;52;21012;-37
2022/08/19 21:17:21;;;;;;;19.60;15.57;;;27.70;57.50;;;;;;4930407;52;21012;-29
2022/08/19 21:22:22;;;;;;;19.35;15.88;;;27.70;57.50;;;;;;4932463;52;21058;-37
2022/08/19 21:27:23;;;;;;;18.23;15.32;;;27.70;57.50;;;;;;4921650;52;20987;-31
2022/08/19 21:32:24;;;;;;;19.35;16.05;;;27.70;57.60;;;;;;4933584;52;20983;-33
2022/08/19 21:37:24;;;;;;;17.45;15.25;;;27.70;57.50;;;;;;4950381;52;21006;-35
2022/08/19 21:42:25;;;;;;;18.87;15.45;;;27.70;57.60;;;;;;4963515;52;21007;-33
2022/08/19 21:47:26;;;;;;;18.27;15.95;;;27.70;57.50;;;;;;4932759;52;20990;-29
2022/08/19 21:52:27;;;;;;;17.77;14.65;;;27.70;57.50;;;;;;4935428;52;20989;-25
2022/08/19 21:57:28;;;;;;;16.55;14.52;;;27.70;57.50;;;;;;4934085;52;21003;-27
2022/08/19 22:02:29;;;;;;;17.15;15.27;;;27.70;57.60;;;;;;4920395;52;20995;-26
2022/08/19 22:07:30;;;;;;;18.48;15.48;;;27.70;57.50;;;;;;4950818;52;21489;-25
2022/08/19 22:12:35;;;;;;;16.35;14.40;;;27.70;57.50;;;;;;4941843;52;21070;-30
2022/08/19 22:17:37;;;;;;;19.52;15.40;;;27.70;57.50;;;;;;4929786;52;22168;-33
2022/08/19 22:22:44;;;;;;;20.20;15.10;;;27.70;57.50;;;;;;4945190;52;21490;-25
2022/08/19 22:27:45;;;;;;;17.67;14.57;;;27.70;57.50;;;;;;4945704;52;21576;-37
2022/08/19 22:32:50;;;;;;;18.25;15.20;;;27.70;57.60;;;;;;4914372;52;21046;-29
2022/08/19 22:37:51;;;;;;;15.80;14.20;;;27.70;57.50;;;;;;4937271;52;21513;-34
2022/08/19 22:43:05;;;;;;;17.45;14.45;;;27.70;57.60;;;;;;4911189;52;20984;-37
2022/08/19 22:48:08;;;;;;;16.17;14.52;;;27.70;57.50;;;;;;4912257;52;20999;-33
2022/08/19 22:53:11;;;;;;;15.68;13.98;;;27.70;57.50;;;;;;4926751;52;21572;-36
2022/08/19 22:58:11;;;;;;;17.27;14.38;;;27.70;57.50;;;;;;4915697;52;20975;-32
2022/08/19 23:03:12;;;;;;;17.48;14.30;;;27.70;57.50;;;;;;4911292;52;20991;-35
2022/08/19 23:08:13;;;;;;;16.75;14.43;;;27.70;57.50;;;;;;4924659;52;20987;-31
2022/08/19 23:13:15;;;;;;;16.30;14.23;;;27.70;57.50;;;;;;4913527;52;21494;-27
2022/08/19 23:18:19;;;;;;;17.25;14.65;;;27.70;57.60;;;;;;4909818;56;21035;-36
2022/08/19 23:23:23;;;;;;;15.55;13.60;;;27.70;57.60;;;;;;4910179;52;20979;-34
2022/08/19 23:33:43;;;;;;;15.63;14.00;;;27.70;57.60;;;;;;4928290;52;21541;-38
2022/08/19 23:38:46;;;;;;;16.20;13.60;;;27.70;57.60;;;;;;4922598;52;21796;-31
2022/08/19 23:43:48;;;;;;;14.63;13.07;;;27.70;57.70;;;;;;4956571;52;21026;-31
2022/08/19 23:48:49;;;;;;;16.23;13.95;;;27.70;57.70;;;;;;4969510;52;20988;-34
2022/08/19 23:53:49;;;;;;;15.93;13.30;;;27.70;57.60;;;;;;4947626;52;20996;-35
2022/08/19 23:58:50;;;;;;;17.70;13.45;;;27.70;57.70;;;;;;4919843;52;21485;-25
